Terminal Aerodrome Forecast
Issued by NWS

Home | Current Version | Previous Version | Graphics & Text | Print | Product List | Glossary On
Versions: 1 2 3 4 5 6 7 8 9 10 11 12 13 14 15 16 17 18 19 20 21 22
000
FTUS43 KICT 162110 AAA
TAFRSL
TAF AMD
KRSL 162110Z 1621/1718 17017KT P6SM -RA VCTS SCT050CB OVC100
      TEMPO 1621/1624 VRB25G40KT 2SM +TSRA OVC035CB
     FM170000 15013KT P6SM VCTS BKN050CB
      TEMPO 1700/1704 3SM +TSRA OVC035CB
     FM170400 12007KT 5SM TSRA OVC035CB
     FM170800 14013KT 5SM TSRA OVC025CB=

USA.gov is the U.S. government's official web portal to all federal, state and local government web resources and services.